Time;durP1;ratioP1;P1;durP2;ratioP2;P2;SDS_P1;SDS_P2;PMS_P1;PMS_P2;Temp;Humidity;BMP_temperature;BMP_pressure;BME280_temperature;BME280_humidity;BME280_pressure;Samples;Min_cycle;Max_cycle;Signal;HPM_P1;HPM_P2
2023/11/09 00:02:13;;;;;;;5.05;4.55;;;;;;;7.09;78.69;97810.16;5098110;28;20040;-70
2023/11/09 00:04:38;;;;;;;5.90;4.15;;;;;;;7.08;78.08;97807.69;5093085;28;20101;-72
2023/11/09 00:07:03;;;;;;;5.90;4.05;;;;;;;7.08;78.57;97807.69;5092621;28;20031;-71
2023/11/09 00:09:29;;;;;;;7.40;4.35;;;;;;;7.00;77.87;97784.78;5092943;28;20024;-71
2023/11/09 00:11:56;;;;;;;5.05;4.53;;;;;;;7.04;77.94;97795.81;5057534;28;20030;-71
2023/11/09 00:14:21;;;;;;;5.88;4.53;;;;;;;7.08;77.17;97791.63;5057879;28;20472;-71
2023/11/09 00:16:47;;;;;;;5.90;4.07;;;;;;;7.03;77.43;97791.50;4990125;28;20121;-72
2023/11/09 00:19:15;;;;;;;6.45;4.15;;;;;;;6.90;77.85;97773.81;4990520;28;20027;-71
2023/11/09 00:21:41;;;;;;;7.72;4.43;;;;;;;7.06;77.59;97786.50;5055829;28;20099;-71
2023/11/09 00:24:10;;;;;;;9.25;4.20;;;;;;;7.05;77.76;97789.44;4990466;28;20072;-71
2023/11/09 00:26:37;;;;;;;8.40;4.20;;;;;;;7.02;77.62;97781.84;5055394;28;20038;-71
2023/11/09 00:29:02;;;;;;;8.77;4.60;;;;;;;7.03;77.09;97794.19;4993603;28;20022;-72
2023/11/09 00:31:27;;;;;;;5.78;3.92;;;;;;;7.00;77.54;97786.63;5009621;28;20104;-71
2023/11/09 00:33:53;;;;;;;6.40;4.18;;;;;;;6.97;76.71;97783.38;5009622;28;20534;-72
2023/11/09 00:36:18;;;;;;;9.52;4.50;;;;;;;6.83;77.66;97773.94;5009347;28;20060;-72
2023/11/09 00:38:46;;;;;;;7.10;4.70;;;;;;;6.89;77.68;97774.84;5077331;28;20058;-71
2023/11/09 00:41:12;;;;;;;6.30;4.22;;;;;;;6.81;77.55;97770.66;5009522;28;20489;-71
2023/11/09 00:43:39;;;;;;;4.65;4.25;;;;;;;6.90;78.04;97780.00;5009556;28;20050;-71
2023/11/09 00:46:05;;;;;;;4.88;4.18;;;;;;;6.86;77.28;97783.38;5011405;28;20033;-72
2023/11/09 00:48:30;;;;;;;5.65;4.38;;;;;;;6.73;77.11;97762.97;5077374;28;20389;-71
2023/11/09 00:50:57;;;;;;;4.80;4.20;;;;;;;6.81;77.94;97772.53;5060236;28;20042;-72
2023/11/09 00:53:22;;;;;;;7.43;4.30;;;;;;;6.81;77.24;97769.84;5077092;28;20477;-72
2023/11/09 00:55:48;;;;;;;5.30;3.95;;;;;;;6.79;78.26;97766.59;5056429;28;20057;-71
2023/11/09 00:58:13;;;;;;;5.43;3.83;;;;;;;6.74;77.69;97747.72;5057027;28;20034;-72
2023/11/09 01:00:39;;;;;;;5.82;4.10;;;;;;;6.72;77.14;97750.63;5058772;28;20030;-71
2023/11/09 01:03:05;;;;;;;6.95;4.05;;;;;;;6.75;77.65;97755.53;5077118;28;20437;-72
2023/11/09 01:05:31;;;;;;;5.03;4.28;;;;;;;6.72;77.43;97750.63;5059861;28;20040;-73
2023/11/09 01:07:56;;;;;;;5.53;4.18;;;;;;;6.69;77.50;97743.06;5060095;28;20382;-71
2023/11/09 01:10:22;;;;;;;6.20;3.80;;;;;;;6.67;77.18;97742.50;5069062;28;20042;-71
2023/11/09 01:12:47;;;;;;;4.60;3.90;;;;;;;6.65;77.45;97738.41;5093271;28;20107;-72
2023/11/09 01:15:12;;;;;;;6.60;4.30;;;;;;;6.63;77.58;97746.66;5093579;28;20053;-70
2023/11/09 01:17:38;;;;;;;7.57;4.13;;;;;;;6.62;77.73;97739.69;5112034;28;20019;-71
2023/11/09 01:20:05;;;;;;;6.85;3.83;;;;;;;6.63;77.39;97735.97;5093924;28;20035;-71
2023/11/09 01:22:30;;;;;;;5.97;4.00;;;;;;;6.56;77.46;97729.91;5093791;28;20023;-71
2023/11/09 01:24:56;;;;;;;4.30;3.35;;;;;;;6.55;77.33;97728.28;5111986;28;20097;-71
2023/11/09 01:27:22;;;;;;;4.60;3.90;;;;;;;6.59;77.30;97739.31;5111681;28;20021;-71
2023/11/09 01:29:47;;;;;;;6.78;4.13;;;;;;;6.57;77.99;97726.19;5071025;28;20453;-71
2023/11/09 01:32:12;;;;;;;6.03;4.15;;;;;;;6.55;77.39;97733.63;5111845;28;20027;-71
2023/11/09 01:34:38;;;;;;;5.97;4.75;;;;;;;6.44;77.54;97710.34;5111888;28;20035;-71
2023/11/09 01:37:10;;;;;;;5.30;3.97;;;;;;;6.42;78.08;97715.09;5093548;28;20368;-71
2023/11/09 01:39:36;;;;;;;6.43;3.90;;;;;;;6.39;77.93;97715.56;5078384;28;20514;-72
2023/11/09 01:42:01;;;;;;;5.53;3.95;;;;;;;6.42;77.43;97730.34;5077181;28;20064;-70
2023/11/09 01:44:27;;;;;;;9.70;4.18;;;;;;;6.43;78.61;97729.28;5077814;28;20450;-69
2023/11/09 01:46:54;;;;;;;5.30;4.25;;;;;;;6.33;77.92;97712.97;5093927;28;20028;-70
2023/11/09 01:49:20;;;;;;;5.40;4.22;;;;;;;6.40;77.75;97717.19;5094209;28;20036;-70
2023/11/09 01:51:48;;;;;;;6.63;4.38;;;;;;;6.32;77.21;97701.50;5111468;28;20027;-71
2023/11/09 01:54:15;;;;;;;6.10;4.68;;;;;;;6.35;78.01;97706.38;5076943;28;20054;-71
2023/11/09 01:56:40;;;;;;;5.57;4.43;;;;;;;6.32;78.28;97716.72;5093063;28;20019;-71
2023/11/09 01:59:07;;;;;;;5.65;4.72;;;;;;;6.15;79.14;97701.34;5077116;28;20036;-71
2023/11/09 02:01:33;;;;;;;10.88;4.78;;;;;;;6.21;78.13;97705.75;5062243;28;20484;-71
2023/11/09 02:03:59;;;;;;;8.07;5.32;;;;;;;6.11;78.36;97697.47;5091181;28;20032;-69
2023/11/09 02:06:25;;;;;;;7.22;5.32;;;;;;;6.19;78.32;97701.69;5061838;28;20031;-70
2023/11/09 02:08:51;;;;;;;5.53;4.93;;;;;;;6.16;78.78;97699.47;5088893;28;20055;-70
2023/11/09 02:11:17;;;;;;;8.25;4.63;;;;;;;6.14;78.22;97685.50;5093520;28;20054;-70
2023/11/09 02:13:42;;;;;;;8.23;5.03;;;;;;;6.15;78.34;97679.94;5074203;28;20406;-71
2023/11/09 02:16:08;;;;;;;6.25;4.93;;;;;;;6.05;78.92;97670.84;5076086;28;20032;-69
2023/11/09 02:18:33;;;;;;;8.32;4.88;;;;;;;6.18;79.23;97689.38;5067418;28;20040;-69
2023/11/09 02:20:59;;;;;;;6.13;4.80;;;;;;;6.16;78.38;97686.13;5064833;28;20019;-70
2023/11/09 02:23:27;;;;;;;7.13;4.53;;;;;;;6.18;78.31;97679.47;5092582;28;20036;-70
2023/11/09 02:25:53;;;;;;;7.45;5.15;;;;;;;6.13;78.24;97678.53;5059747;28;20024;-70
2023/11/09 02:28:19;;;;;;;5.55;4.40;;;;;;;6.11;77.96;97677.97;5090260;28;20031;-69
2023/11/09 02:30:47;;;;;;;6.78;5.07;;;;;;;6.11;78.87;97676.09;5078391;28;20110;-69
2023/11/09 02:33:13;;;;;;;6.50;4.95;;;;;;;6.03;78.40;97659.56;5079675;28;20068;-70
2023/11/09 02:35:39;;;;;;;6.70;5.00;;;;;;;6.10;78.47;97665.63;5076205;28;20020;-70
2023/11/09 02:38:05;;;;;;;7.20;4.97;;;;;;;6.08;78.82;97665.03;5080155;28;20031;-70
2023/11/09 02:40:30;;;;;;;6.75;5.00;;;;;;;6.05;77.90;97652.13;5086472;28;20103;-69
2023/11/09 02:42:56;;;;;;;6.10;5.50;;;;;;;6.07;78.06;97647.38;5076317;28;20495;-69
2023/11/09 02:45:21;;;;;;;9.65;5.32;;;;;;;6.07;77.92;97650.03;5075958;28;20399;-69
2023/11/09 02:47:47;;;;;;;5.07;4.43;;;;;;;6.01;78.29;97645.63;5076279;28;20043;-71
2023/11/09 02:50:12;;;;;;;5.25;4.75;;;;;;;6.03;77.97;97648.88;5059663;28;20031;-69
2023/11/09 02:52:38;;;;;;;6.22;4.70;;;;;;;6.08;77.60;97641.81;5076071;28;20032;-69
2023/11/09 02:55:03;;;;;;;7.55;5.28;;;;;;;5.97;79.08;97639.13;5076282;28;20035;-69
2023/11/09 02:57:30;;;;;;;5.65;5.05;;;;;;;6.02;78.39;97641.91;5071815;28;20036;-70
2023/11/09 02:59:55;;;;;;;7.68;4.90;;;;;;;6.04;78.70;97646.00;5086108;28;20110;-70
2023/11/09 03:02:21;;;;;;;10.27;5.38;;;;;;;6.06;78.34;97637.75;5097289;28;20031;-69
2023/11/09 03:04:47;;;;;;;7.20;5.35;;;;;;;6.04;78.06;97629.97;5114502;28;20043;-69
2023/11/09 03:07:13;;;;;;;6.97;4.82;;;;;;;5.99;78.14;97626.34;5095898;28;20049;-69
2023/11/09 03:09:38;;;;;;;5.47;4.38;;;;;;;6.01;78.09;97613.56;5096167;28;20022;-69
2023/11/09 03:12:06;;;;;;;6.75;5.03;;;;;;;6.10;77.78;97622.84;5114141;28;20032;-69
2023/11/09 03:14:33;;;;;;;6.45;4.93;;;;;;;6.05;77.97;97609.38;5096375;28;20034;-70
2023/11/09 03:17:00;;;;;;;7.88;5.00;;;;;;;6.07;77.94;97607.28;5095654;28;20066;-69
2023/11/09 03:19:26;;;;;;;5.97;4.78;;;;;;;6.01;77.56;97597.50;5114332;28;20414;-69
2023/11/09 03:21:51;;;;;;;5.72;4.60;;;;;;;6.07;77.67;97593.91;5114071;28;20040;-70
2023/11/09 03:24:18;;;;;;;8.75;4.82;;;;;;;6.10;77.36;97591.59;5095793;28;20023;-70
2023/11/09 03:26:43;;;;;;;4.85;4.00;;;;;;;6.02;77.15;97567.88;5113750;28;20030;-70
2023/11/09 03:29:09;;;;;;;5.03;4.45;;;;;;;6.02;77.21;97561.75;5114060;28;20024;-70
2023/11/09 03:31:35;;;;;;;7.15;4.60;;;;;;;6.12;76.89;97578.81;5095640;28;20032;-69
2023/11/09 03:34:02;;;;;;;5.25;4.30;;;;;;;6.15;76.71;97582.88;5095593;28;20096;-69
2023/11/09 03:36:29;;;;;;;6.80;4.63;;;;;;;6.17;76.66;97575.44;5094733;28;20054;-70
2023/11/09 03:38:55;;;;;;;5.55;4.35;;;;;;;6.18;76.84;97567.19;5095630;28;20394;-70
2023/11/09 03:41:23;;;;;;;4.57;4.10;;;;;;;6.13;76.60;97568.94;5113632;28;20039;-70
2023/11/09 03:43:48;;;;;;;6.05;4.13;;;;;;;6.18;75.80;97561.06;5095876;28;20019;-70
2023/11/09 03:46:14;;;;;;;5.90;3.78;;;;;;;6.20;76.56;97561.63;5109407;28;20047;-69
2023/11/09 03:48:39;;;;;;;4.90;4.03;;;;;;;6.16;76.47;97563.94;5093672;28;20028;-69
2023/11/09 03:51:05;;;;;;;5.53;4.30;;;;;;;6.20;76.60;97561.63;5092628;28;20035;-69
2023/11/09 03:53:30;;;;;;;5.63;4.03;;;;;;;6.22;75.59;97559.53;5113619;28;20072;-70
2023/11/09 03:55:55;;;;;;;6.18;4.10;;;;;;;6.23;75.33;97553.16;5111364;28;20101;-70
2023/11/09 03:58:21;;;;;;;6.93;3.95;;;;;;;6.21;75.55;97555.22;5113586;28;20038;-69
2023/11/09 04:00:46;;;;;;;5.47;4.28;;;;;;;6.23;75.24;97545.94;5109748;28;20039;-70
2023/11/09 04:03:14;;;;;;;6.95;4.43;;;;;;;6.23;75.78;97545.13;5103338;28;20024;-72
2023/11/09 04:05:40;;;;;;;5.57;3.75;;;;;;;6.15;75.36;97529.44;5077773;28;20102;-72
2023/11/09 04:08:05;;;;;;;5.47;4.10;;;;;;;6.20;74.99;97540.25;5093034;28;20028;-71
2023/11/09 04:10:30;;;;;;;5.25;3.83;;;;;;;6.21;74.83;97528.47;5074625;28;20032;-72
2023/11/09 04:12:56;;;;;;;6.40;3.88;;;;;;;6.21;75.31;97531.97;5074777;28;20095;-71
2023/11/09 04:15:21;;;;;;;5.65;3.95;;;;;;;6.23;74.91;97537.13;5057578;28;20031;-71
2023/11/09 04:17:47;;;;;;;5.53;3.83;;;;;;;6.12;74.65;97513.84;5092772;28;20487;-71
2023/11/09 04:20:12;;;;;;;6.80;3.80;;;;;;;6.20;74.25;97519.69;5114249;27;20038;-70
2023/11/09 04:22:38;;;;;;;5.40;3.72;;;;;;;6.20;74.55;97524.19;5070270;28;20023;-69
2023/11/09 04:25:04;;;;;;;4.68;3.55;;;;;;;6.22;74.45;97527.44;5092636;28;20038;-70
2023/11/09 04:27:29;;;;;;;5.70;4.50;;;;;;;6.22;74.37;97516.75;5092316;28;20059;-71
2023/11/09 04:29:54;;;;;;;9.18;6.38;;;;;;;6.22;73.94;97508.75;5103461;28;20063;-70
2023/11/09 04:32:20;;;;;;;7.65;6.05;;;;;;;6.20;73.94;97506.31;5112669;28;20023;-70
2023/11/09 04:34:45;;;;;;;7.30;5.90;;;;;;;6.24;73.38;97506.63;5097587;28;20114;-71
2023/11/09 04:37:14;;;;;;;8.95;5.72;;;;;;;6.22;73.08;97506.06;5077532;28;20081;-71
2023/11/09 04:39:42;;;;;;;5.90;4.25;;;;;;;6.24;74.11;97502.13;5077844;28;20047;-69
2023/11/09 04:42:09;;;;;;;6.80;4.18;;;;;;;6.21;73.46;97499.06;5074421;28;20042;-69
2023/11/09 04:44:37;;;;;;;5.63;4.07;;;;;;;6.23;73.50;97499.69;5074448;28;20495;-69
2023/11/09 04:47:08;;;;;;;5.00;4.40;;;;;;;6.18;74.15;97489.66;5073340;28;20020;-70
2023/11/09 04:49:37;;;;;;;5.47;4.00;;;;;;;6.13;73.94;97475.38;5074977;28;20480;-71
2023/11/09 04:52:04;;;;;;;5.82;3.85;;;;;;;6.20;73.74;97484.09;5074139;28;20016;-71
2023/11/09 04:54:44;;;;;;;5.70;3.85;;;;;;;6.18;73.68;97480.84;5074211;28;20067;-70
2023/11/09 05:07:47;;;;;;;5.32;3.70;;;;;;;6.02;73.71;97444.16;5098900;28;20532;-70
2023/11/09 05:10:12;;;;;;;5.75;4.97;;;;;;;6.07;73.66;97457.59;5093753;28;20024;-70
2023/11/09 05:12:38;;;;;;;7.22;5.38;;;;;;;5.98;73.37;97445.63;5091729;28;20102;-71
2023/11/09 05:15:06;;;;;;;5.20;4.40;;;;;;;6.06;73.06;97451.47;5091902;28;20101;-70
2023/11/09 05:17:31;;;;;;;6.97;4.40;;;;;;;6.05;73.52;97449.00;5091482;28;20036;-70
2023/11/09 05:19:57;;;;;;;6.30;4.40;;;;;;;6.07;73.58;97446.91;5091603;28;20031;-71
2023/11/09 05:22:22;;;;;;;4.90;3.85;;;;;;;6.02;73.04;97454.84;5091549;28;20117;-69
2023/11/09 05:24:48;;;;;;;5.95;3.70;;;;;;;6.06;73.32;97456.81;5087075;28;20045;-71
2023/11/09 05:27:14;;;;;;;6.70;4.07;;;;;;;6.08;72.94;97459.25;5073272;28;20081;-70
2023/11/09 05:29:39;;;;;;;5.28;4.20;;;;;;;6.07;72.98;97462.94;5062982;28;20543;-70
2023/11/09 05:32:06;;;;;;;5.97;3.92;;;;;;;6.06;73.23;97464.81;5111872;28;20027;-71
2023/11/09 05:34:33;;;;;;;4.75;3.92;;;;;;;6.12;73.39;97455.03;5084611;28;20032;-70
2023/11/09 05:36:59;;;;;;;4.80;4.00;;;;;;;6.09;73.32;97455.53;5099003;28;20096;-70
2023/11/09 05:39:24;;;;;;;5.07;4.00;;;;;;;6.08;72.84;97462.72;5097285;28;20028;-71
2023/11/09 05:41:51;;;;;;;8.35;7.28;;;;;;;6.04;72.86;97445.53;5091447;28;20094;-69
2023/11/09 05:44:17;;;;;;;5.15;4.45;;;;;;;6.05;73.46;97451.69;5106185;28;20030;-69
2023/11/09 05:46:43;;;;;;;6.13;4.05;;;;;;;6.11;72.67;97453.44;5077155;28;20032;-69
2023/11/09 05:49:10;;;;;;;4.97;3.63;;;;;;;6.07;73.12;97453.06;5111062;28;20082;-69
2023/11/09 05:51:45;;;;;;;5.10;4.00;;;;;;;6.11;73.09;97445.41;5044437;28;20032;-69
2023/11/09 05:54:11;;;;;;;3.97;3.53;;;;;;;6.05;73.54;97438.31;5073121;28;20055;-69
2023/11/09 05:56:36;;;;;;;4.32;3.47;;;;;;;6.07;72.39;97429.00;5093139;28;20281;-70
2023/11/09 05:59:01;;;;;;;4.78;3.65;;;;;;;6.04;72.95;97426.00;5080143;28;20051;-69
2023/11/09 06:01:30;;;;;;;4.75;4.20;;;;;;;6.07;72.67;97429.00;5090480;28;20535;-71
2023/11/09 06:03:57;;;;;;;6.50;3.65;;;;;;;5.97;72.53;97404.75;5114515;28;20122;-70
2023/11/09 06:06:22;;;;;;;5.43;3.83;;;;;;;6.07;73.17;97436.22;5115453;28;20565;-70
2023/11/09 06:08:49;;;;;;;4.15;3.75;;;;;;;6.06;73.25;97429.25;5099024;28;20119;-70
2023/11/09 06:11:15;;;;;;;4.43;3.78;;;;;;;6.04;73.28;97413.47;5060522;28;20032;-71
2023/11/09 06:13:41;;;;;;;5.80;4.07;;;;;;;5.99;73.52;97407.19;5095155;28;20044;-70
2023/11/09 06:16:07;;;;;;;4.85;3.75;;;;;;;6.05;72.89;97422.28;5104445;28;20095;-70
2023/11/09 06:18:33;;;;;;;5.47;3.90;;;;;;;6.04;72.84;97426.00;5097399;28;20044;-70
2023/11/09 06:21:00;;;;;;;5.22;3.65;;;;;;;5.92;72.46;97411.84;5097386;28;20019;-70
2023/11/09 06:23:28;;;;;;;5.80;4.53;;;;;;;6.01;73.15;97426.47;5101465;28;20158;-70
2023/11/09 06:25:55;;;;;;;4.78;3.90;;;;;;;6.03;72.16;97435.88;5115146;28;20073;-70
2023/11/09 06:28:23;;;;;;;4.25;3.83;;;;;;;6.02;72.91;97436.13;5101680;28;20032;-70
2023/11/09 06:30:50;;;;;;;5.75;4.20;;;;;;;5.95;72.73;97432.75;5089269;28;20491;-71
2023/11/09 06:33:16;;;;;;;6.28;4.13;;;;;;;6.03;72.85;97440.41;5111434;28;20039;-70
2023/11/09 06:35:41;;;;;;;5.20;4.47;;;;;;;6.06;72.94;97439.94;5110716;28;20035;-71
2023/11/09 06:38:08;;;;;;;21.17;14.27;;;;;;;6.03;72.62;97433.22;5115152;28;20055;-71
2023/11/09 06:40:35;;;;;;;18.55;13.00;;;;;;;6.10;72.55;97430.41;5114980;28;20061;-70
2023/11/09 06:43:01;;;;;;;39.42;24.67;;;;;;;6.07;72.37;97420.19;5096695;28;20102;-71
2023/11/09 06:45:26;;;;;;;77.07;43.30;;;;;;;6.11;72.13;97426.69;5114677;28;20519;-71
2023/11/09 06:47:51;;;;;;;9.60;7.25;;;;;;;6.08;72.75;97427.16;5096698;28;20036;-71
2023/11/09 06:50:19;;;;;;;15.23;11.70;;;;;;;6.04;72.77;97423.34;5114945;28;20028;-70
2023/11/09 06:52:45;;;;;;;5.57;4.57;;;;;;;6.11;72.57;97421.34;5114658;28;20107;-71
2023/11/09 06:55:15;;;;;;;6.57;5.10;;;;;;;6.14;71.65;97416.34;5099558;27;20027;-70
2023/11/09 06:57:41;;;;;;;6.45;4.82;;;;;;;6.24;72.42;97431.78;5106422;27;20020;-71
2023/11/09 07:00:07;;;;;;;5.15;4.40;;;;;;;6.26;72.50;97430.50;5092816;28;20479;-71
2023/11/09 07:02:33;;;;;;;4.88;3.97;;;;;;;6.30;72.25;97436.22;5111636;28;20063;-72
2023/11/09 07:04:59;;;;;;;5.55;3.80;;;;;;;6.24;72.01;97426.44;5114747;28;20555;-70
2023/11/09 07:07:24;;;;;;;6.15;4.25;;;;;;;6.25;71.40;97423.50;5096036;28;20031;-70
2023/11/09 07:09:51;;;;;;;5.93;5.13;;;;;;;6.32;71.62;97431.44;5095259;28;20038;-70
2023/11/09 07:12:19;;;;;;;6.32;4.88;;;;;;;6.32;71.90;97443.97;5096038;28;20540;-71
2023/11/09 07:14:44;;;;;;;4.70;4.13;;;;;;;6.34;72.37;97437.34;5085792;28;20024;-71
2023/11/09 07:17:11;;;;;;;4.35;3.95;;;;;;;6.35;72.44;97438.97;5075588;28;20395;-71
2023/11/09 07:19:37;;;;;;;5.30;3.83;;;;;;;6.36;70.84;97437.94;5076177;28;20073;-70
2023/11/09 07:22:05;;;;;;;5.15;3.67;;;;;;;6.38;71.47;97446.53;5093780;28;20031;-70
2023/11/09 07:24:35;;;;;;;5.07;3.92;;;;;;;6.39;72.00;97445.47;5093857;28;20028;-71
2023/11/09 07:27:01;;;;;;;5.05;3.72;;;;;;;6.38;71.70;97449.19;5093493;28;20032;-71
2023/11/09 07:29:26;;;;;;;5.80;4.00;;;;;;;6.32;71.38;97439.44;5100721;28;20506;-71
2023/11/09 07:31:52;;;;;;;5.32;4.50;;;;;;;6.40;71.69;97436.41;5114050;28;20035;-70
2023/11/09 07:34:17;;;;;;;6.53;4.38;;;;;;;6.41;71.46;97427.34;5114170;28;20023;-71
2023/11/09 07:36:43;;;;;;;4.68;4.18;;;;;;;6.43;71.40;97430.59;5093731;28;20089;-72
2023/11/09 07:39:08;;;;;;;4.80;3.72;;;;;;;6.42;71.73;97418.25;5106340;28;20149;-70
2023/11/09 07:41:34;;;;;;;5.05;4.03;;;;;;;6.43;71.76;97419.06;5113776;28;20043;-71
2023/11/09 07:44:00;;;;;;;6.20;4.20;;;;;;;6.46;71.16;97430.13;5095711;28;20069;-70
2023/11/09 07:46:25;;;;;;;9.05;6.25;;;;;;;6.50;71.75;97433.94;5100458;28;20140;-71
2023/11/09 07:48:51;;;;;;;4.90;4.38;;;;;;;6.49;71.63;97434.97;5095610;28;20118;-71
2023/11/09 07:51:18;;;;;;;5.72;3.85;;;;;;;6.46;71.28;97424.78;5095573;28;20036;-70
2023/11/09 07:53:43;;;;;;;5.35;4.10;;;;;;;6.55;71.33;97439.41;5092069;28;20016;-71
2023/11/09 07:56:11;;;;;;;6.78;4.13;;;;;;;6.55;71.67;97436.72;5114168;27;20042;-72
2023/11/09 07:58:36;;;;;;;5.60;3.90;;;;;;;6.65;70.77;97439.56;5110277;27;20106;-71
2023/11/09 08:01:04;;;;;;;5.88;4.20;;;;;;;6.69;70.90;97450.63;5113364;28;20114;-71
2023/11/09 08:03:29;;;;;;;7.32;4.72;;;;;;;6.75;70.27;97446.97;5090042;28;20028;-71
2023/11/09 08:05:56;;;;;;;6.82;4.88;;;;;;;6.79;70.55;97437.44;5092653;28;20119;-71
2023/11/09 08:08:21;;;;;;;6.18;4.90;;;;;;;6.89;70.12;97453.69;5074834;28;20496;-71
2023/11/09 08:10:47;;;;;;;7.50;4.80;;;;;;;6.96;69.77;97447.13;5093793;28;20092;-71
2023/11/09 08:13:13;;;;;;;7.20;4.47;;;;;;;6.93;69.68;97431.53;5076059;28;20032;-71
2023/11/09 08:15:38;;;;;;;6.50;4.80;;;;;;;6.96;69.56;97423.06;5092543;28;20039;-72
2023/11/09 08:18:04;;;;;;;8.38;5.40;;;;;;;7.15;70.00;97441.56;5109215;27;20030;-72
2023/11/09 08:20:29;;;;;;;7.13;4.43;;;;;;;7.16;69.44;97445.88;5120241;27;20406;-72
2023/11/09 08:22:56;;;;;;;4.82;4.22;;;;;;;7.23;69.43;97446.56;5099984;28;20072;-71
2023/11/09 08:25:23;;;;;;;5.55;4.30;;;;;;;7.28;68.84;97439.41;5074424;28;20039;-71
2023/11/09 08:27:48;;;;;;;4.78;4.38;;;;;;;7.23;69.10;97417.09;5092674;28;20034;-72
2023/11/09 08:30:15;;;;;;;4.85;4.38;;;;;;;7.43;69.14;97430.81;5088070;28;20114;-72
2023/11/09 08:32:41;;;;;;;6.32;5.72;;;;;;;7.47;68.39;97426.59;5095023;28;20016;-71
2023/11/09 08:35:10;;;;;;;6.88;5.72;;;;;;;7.53;68.55;97426.44;5111728;28;20110;-71
2023/11/09 08:37:42;;;;;;;7.07;4.72;;;;;;;7.76;68.15;97420.09;5112589;28;20058;-72
2023/11/09 08:40:21;;;;;;;4.95;4.30;;;;;;;7.93;68.03;97433.47;5081570;28;20040;-72
2023/11/09 08:42:48;;;;;;;4.93;4.10;;;;;;;7.97;67.29;97426.56;5095693;28;20111;-72
2023/11/09 08:45:17;;;;;;;7.22;4.60;;;;;;;8.08;67.53;97426.44;5094326;28;20629;-72
2023/11/09 08:47:46;;;;;;;4.82;3.50;;;;;;;8.22;66.64;97425.03;5094774;28;20027;-72
2023/11/09 08:50:13;;;;;;;4.82;4.13;;;;;;;8.35;66.43;97440.00;5112663;28;20031;-71
2023/11/09 08:52:42;;;;;;;5.85;3.90;;;;;;;8.43;66.32;97418.09;5094467;28;20036;-71
2023/11/09 08:55:08;;;;;;;5.30;3.92;;;;;;;8.67;65.96;97426.69;5112606;28;20060;-71
2023/11/09 08:57:36;;;;;;;4.82;4.07;;;;;;;8.73;65.99;97412.25;5094099;28;20028;-72
2023/11/09 09:00:05;;;;;;;5.75;4.07;;;;;;;8.91;65.59;97422.69;5077710;28;20034;-71
2023/11/09 09:02:31;;;;;;;4.47;4.07;;;;;;;8.99;64.86;97419.53;5112233;28;20037;-72
2023/11/09 09:04:57;;;;;;;4.22;3.67;;;;;;;9.01;64.81;97412.84;5077414;28;20650;-72
2023/11/09 09:07:22;;;;;;;4.75;3.90;;;;;;;9.03;64.79;97415.28;5093755;28;20444;-72
2023/11/09 09:09:48;;;;;;;4.25;3.40;;;;;;;9.01;64.29;97406.66;5112580;28;20429;-72
2023/11/09 09:12:18;;;;;;;5.28;3.92;;;;;;;9.04;64.18;97409.66;5094059;28;20035;-72
2023/11/09 09:14:46;;;;;;;5.03;4.03;;;;;;;9.00;64.03;97419.28;5112419;28;20058;-72
2023/11/09 09:17:12;;;;;;;5.45;4.63;;;;;;;8.80;64.30;97399.44;5094196;28;20080;-72
2023/11/09 09:19:38;;;;;;;5.72;4.40;;;;;;;8.85;64.12;97418.31;5112192;28;20027;-72
2023/11/09 09:22:04;;;;;;;4.90;4.25;;;;;;;8.87;64.54;97432.28;5112090;28;20213;-72
2023/11/09 09:24:30;;;;;;;5.70;3.92;;;;;;;8.78;64.98;97434.63;5112066;28;20114;-71
2023/11/09 09:26:55;;;;;;;7.45;4.45;;;;;;;8.90;65.32;97432.59;5092504;28;20571;-71
2023/11/09 09:29:24;;;;;;;5.55;4.60;;;;;;;8.93;65.75;97431.28;5095869;28;20551;-71
2023/11/09 09:31:50;;;;;;;6.55;4.45;;;;;;;8.96;65.35;97439.63;5105268;28;20027;-71
2023/11/09 09:34:22;;;;;;;4.65;3.80;;;;;;;9.01;65.39;97438.88;5074150;28;20554;-71
2023/11/09 09:36:48;;;;;;;5.30;4.70;;;;;;;9.02;65.50;97432.47;5070590;28;20487;-72
2023/11/09 09:39:14;;;;;;;4.60;3.83;;;;;;;9.01;64.99;97434.31;5104828;28;20031;-71
2023/11/09 09:41:50;;;;;;;6.30;4.53;;;;;;;9.01;65.20;97444.25;5092936;28;20036;-72
2023/11/09 09:44:17;;;;;;;6.25;5.40;;;;;;;8.93;64.99;97437.47;5095010;28;20112;-72
2023/11/09 09:46:42;;;;;;;11.77;8.43;;;;;;;8.96;65.16;97447.69;5056964;28;20406;-71
2023/11/09 09:49:09;;;;;;;6.63;4.68;;;;;;;8.88;65.01;97455.41;5093583;28;20115;-71
2023/11/09 09:51:36;;;;;;;5.18;4.00;;;;;;;8.86;65.10;97452.16;5075212;28;20046;-72
2023/11/09 09:54:02;;;;;;;6.97;5.35;;;;;;;8.77;64.84;97448.31;5060722;28;20581;-71
2023/11/09 09:56:28;;;;;;;5.75;4.10;;;;;;;8.73;64.94;97447.16;5072355;28;20043;-72
2023/11/09 09:58:54;;;;;;;8.30;5.80;;;;;;;8.73;65.55;97452.53;5073390;28;20064;-71
2023/11/09 10:01:20;;;;;;;10.38;6.85;;;;;;;8.66;65.55;97452.72;5091192;28;20113;-72
2023/11/09 10:03:47;;;;;;;7.65;4.70;;;;;;;8.64;65.17;97449.47;5073434;28;20058;-72
2023/11/09 10:06:13;;;;;;;7.25;4.10;;;;;;;8.58;65.43;97450.50;5072921;28;20027;-71
2023/11/09 10:08:39;;;;;;;6.35;4.35;;;;;;;8.57;65.37;97442.66;5073263;28;20097;-72
2023/11/09 10:11:04;;;;;;;7.40;4.35;;;;;;;8.64;65.84;97443.28;5091170;28;20058;-72
2023/11/09 10:13:32;;;;;;;6.68;4.55;;;;;;;8.66;65.33;97441.19;5063070;28;20080;-72
2023/11/09 10:15:58;;;;;;;5.22;4.20;;;;;;;8.72;65.65;97429.44;5099568;28;20019;-72
2023/11/09 10:18:28;;;;;;;5.20;4.00;;;;;;;8.75;65.08;97419.00;5076788;28;20399;-71
2023/11/09 10:20:58;;;;;;;5.00;4.03;;;;;;;8.91;64.96;97422.69;5109871;28;20483;-71
2023/11/09 10:23:25;;;;;;;5.72;3.83;;;;;;;8.98;64.82;97415.25;5110886;28;20078;-72
2023/11/09 10:25:52;;;;;;;5.43;4.25;;;;;;;9.00;65.29;97415.78;5089399;28;20032;-71
2023/11/09 10:28:20;;;;;;;7.47;4.90;;;;;;;9.09;65.02;97405.38;5091529;28;20521;-72
2023/11/09 10:30:46;;;;;;;4.97;3.55;;;;;;;9.19;64.61;97413.56;5093377;28;20027;-71
2023/11/09 10:33:13;;;;;;;5.88;3.90;;;;;;;9.30;64.53;97413.41;5097808;28;20118;-72
2023/11/09 10:35:40;;;;;;;7.60;4.40;;;;;;;9.31;64.71;97395.41;5111055;28;20098;-72
2023/11/09 10:38:09;;;;;;;4.65;4.07;;;;;;;9.40;65.01;97408.13;5076239;28;20467;-72
2023/11/09 10:40:41;;;;;;;6.45;4.72;;;;;;;9.38;65.20;97401.38;5093718;28;20057;-72
2023/11/09 10:43:08;;;;;;;7.22;5.38;;;;;;;9.37;65.22;97405.13;5093371;28;20031;-72
2023/11/09 10:45:36;;;;;;;9.32;6.05;;;;;;;9.37;65.71;97395.19;5083133;28;20027;-72
2023/11/09 10:48:07;;;;;;;6.20;4.68;;;;;;;9.44;65.70;97406.53;5094607;28;20075;-72
2023/11/09 10:50:34;;;;;;;7.75;5.35;;;;;;;9.42;66.00;97391.72;5076468;28;20440;-72
2023/11/09 10:53:00;;;;;;;10.38;5.40;;;;;;;9.41;66.19;97380.16;5076290;28;20066;-72
2023/11/09 10:55:26;;;;;;;6.32;4.90;;;;;;;9.43;65.96;97383.41;5076155;28;20119;-72
2023/11/09 10:57:52;;;;;;;19.83;9.85;;;;;;;9.44;66.20;97378.84;5076438;28;20024;-72
2023/11/09 11:00:31;;;;;;;10.15;5.57;;;;;;;9.54;65.80;97378.94;5089339;28;20065;-72
2023/11/09 11:03:08;;;;;;;5.75;4.80;;;;;;;9.58;66.47;97380.84;5111980;28;20118;-72
2023/11/09 11:05:40;;;;;;;6.00;3.50;;;;;;;9.60;66.81;97367.13;5088242;28;20027;-72
2023/11/09 11:08:06;;;;;;;4.80;3.70;;;;;;;9.62;67.34;97371.19;5088834;28;20042;-72
2023/11/09 11:10:31;;;;;;;4.60;3.35;;;;;;;9.68;67.80;97364.75;5087772;28;20028;-72
2023/11/09 11:13:03;;;;;;;6.10;3.85;;;;;;;9.83;67.72;97363.25;5103799;28;20032;-72
2023/11/09 11:15:52;;;;;;;5.22;3.90;;;;;;;9.89;68.16;97360.34;5088549;28;20092;-72
2023/11/09 11:18:56;;;;;;;7.25;5.00;;;;;;;9.97;68.49;97356.31;5088772;28;20028;-72
2023/11/09 11:21:52;;;;;;;3.35;3.05;;;;;;;9.95;68.37;97342.34;5103187;28;20032;-72
2023/11/09 11:24:39;;;;;;;4.40;3.22;;;;;;;10.04;68.80;97352.34;5064394;28;20460;-72
2023/11/09 11:27:11;;;;;;;4.53;2.85;;;;;;;10.07;69.02;97351.00;5093716;28;20037;-72
2023/11/09 11:29:37;;;;;;;5.13;2.22;;;;;;;10.04;68.98;97330.00;5084209;28;20043;-72
2023/11/09 11:32:04;;;;;;;4.35;2.38;;;;;;;10.10;69.82;97350.50;5113962;28;20486;-72
2023/11/09 11:34:54;;;;;;;3.67;2.80;;;;;;;10.12;70.27;97340.31;5113953;28;20108;-72
2023/11/09 11:37:31;;;;;;;5.60;2.70;;;;;;;10.16;70.31;97338.72;5095491;28;20036;-72
2023/11/09 11:39:59;;;;;;;3.15;2.28;;;;;;;10.15;70.70;97337.91;5096176;28;20440;-72
2023/11/09 11:42:27;;;;;;;5.15;3.20;;;;;;;10.20;71.12;97331.72;5113696;28;20023;-71
2023/11/09 11:44:59;;;;;;;5.03;3.03;;;;;;;10.20;71.37;97329.03;5113741;28;20138;-72
2023/11/09 11:47:27;;;;;;;5.90;4.38;;;;;;;10.15;71.70;97331.72;5095758;28;20114;-72
2023/11/09 11:49:59;;;;;;;4.95;4.03;;;;;;;10.17;72.00;97330.41;5113720;28;20030;-72
2023/11/09 11:52:24;;;;;;;7.03;4.60;;;;;;;10.16;72.51;97328.75;5081881;28;20036;-72